sensor_id;sensor_type;location;lat;lon;timestamp;P1;durP1;ratioP1;P2;durP2;ratioP2
5454;SDS011;2750;49.050;9.250;2023-08-08T00:02:09;4.53;;;2.90;;
5454;SDS011;2750;49.050;9.250;2023-08-08T00:07:12;3.63;;;2.70;;
5454;SDS011;2750;49.050;9.250;2023-08-08T00:12:14;2.93;;;2.73;;
5454;SDS011;2750;49.050;9.250;2023-08-08T00:17:15;2.87;;;2.50;;
5454;SDS011;2750;49.050;9.250;2023-08-08T00:22:18;4.40;;;2.10;;
5454;SDS011;2750;49.050;9.250;2023-08-08T00:27:20;4.33;;;2.63;;
5454;SDS011;2750;49.050;9.250;2023-08-08T00:32:22;3.20;;;2.13;;
5454;SDS011;2750;49.050;9.250;2023-08-08T00:37:24;4.63;;;2.40;;
5454;SDS011;2750;49.050;9.250;2023-08-08T00:42:26;2.63;;;2.13;;
5454;SDS011;2750;49.050;9.250;2023-08-08T00:47:28;2.40;;;2.20;;
5454;SDS011;2750;49.050;9.250;2023-08-08T00:52:31;3.63;;;2.63;;
5454;SDS011;2750;49.050;9.250;2023-08-08T00:57:32;3.30;;;2.83;;
5454;SDS011;2750;49.050;9.250;2023-08-08T01:02:35;2.90;;;2.20;;
5454;SDS011;2750;49.050;9.250;2023-08-08T01:07:41;2.43;;;2.23;;
5454;SDS011;2750;49.050;9.250;2023-08-08T01:12:54;5.83;;;2.57;;
5454;SDS011;2750;49.050;9.250;2023-08-08T01:17:59;3.10;;;2.50;;
5454;SDS011;2750;49.050;9.250;2023-08-08T01:23:07;2.50;;;2.30;;
5454;SDS011;2750;49.050;9.250;2023-08-08T01:28:13;2.83;;;2.37;;
5454;SDS011;2750;49.050;9.250;2023-08-08T01:33:15;3.70;;;2.20;;
5454;SDS011;2750;49.050;9.250;2023-08-08T01:38:17;2.27;;;1.83;;
5454;SDS011;2750;49.050;9.250;2023-08-08T01:43:26;2.33;;;2.13;;
5454;SDS011;2750;49.050;9.250;2023-08-08T01:48:28;3.23;;;2.20;;
5454;SDS011;2750;49.050;9.250;2023-08-08T01:53:29;2.70;;;2.30;;
5454;SDS011;2750;49.050;9.250;2023-08-08T01:58:32;4.20;;;2.43;;
5454;SDS011;2750;49.050;9.250;2023-08-08T02:03:34;3.47;;;2.70;;
5454;SDS011;2750;49.050;9.250;2023-08-08T02:08:36;2.87;;;2.40;;
5454;SDS011;2750;49.050;9.250;2023-08-08T02:13:39;3.10;;;2.80;;
5454;SDS011;2750;49.050;9.250;2023-08-08T02:18:41;3.50;;;2.77;;
5454;SDS011;2750;49.050;9.250;2023-08-08T02:23:42;4.80;;;2.33;;
5454;SDS011;2750;49.050;9.250;2023-08-08T02:28:46;2.40;;;2.20;;
5454;SDS011;2750;49.050;9.250;2023-08-08T02:33:48;4.57;;;2.53;;
5454;SDS011;2750;49.050;9.250;2023-08-08T02:38:50;2.40;;;1.97;;
5454;SDS011;2750;49.050;9.250;2023-08-08T02:43:54;2.77;;;2.10;;
5454;SDS011;2750;49.050;9.250;2023-08-08T02:48:56;4.03;;;2.63;;
5454;SDS011;2750;49.050;9.250;2023-08-08T02:53:57;4.00;;;2.47;;
5454;SDS011;2750;49.050;9.250;2023-08-08T02:59:00;4.63;;;2.27;;
5454;SDS011;2750;49.050;9.250;2023-08-08T03:04:02;3.63;;;2.90;;
5454;SDS011;2750;49.050;9.250;2023-08-08T03:09:03;3.87;;;2.57;;
5454;SDS011;2750;49.050;9.250;2023-08-08T03:14:07;2.57;;;2.37;;
5454;SDS011;2750;49.050;9.250;2023-08-08T03:19:09;4.80;;;3.20;;
5454;SDS011;2750;49.050;9.250;2023-08-08T03:24:11;3.00;;;2.60;;
5454;SDS011;2750;49.050;9.250;2023-08-08T03:29:14;4.87;;;2.70;;
5454;SDS011;2750;49.050;9.250;2023-08-08T03:34:16;3.30;;;2.83;;
5454;SDS011;2750;49.050;9.250;2023-08-08T03:39:17;3.87;;;2.70;;
5454;SDS011;2750;49.050;9.250;2023-08-08T03:44:20;2.87;;;2.40;;
5454;SDS011;2750;49.050;9.250;2023-08-08T03:49:22;3.50;;;2.63;;
5454;SDS011;2750;49.050;9.250;2023-08-08T03:54:23;4.40;;;3.07;;
5454;SDS011;2750;49.050;9.250;2023-08-08T03:59:26;4.23;;;2.63;;
5454;SDS011;2750;49.050;9.250;2023-08-08T04:04:28;3.47;;;3.00;;
5454;SDS011;2750;49.050;9.250;2023-08-08T04:09:29;3.30;;;2.87;;
5454;SDS011;2750;49.050;9.250;2023-08-08T04:14:32;3.63;;;2.67;;
5454;SDS011;2750;49.050;9.250;2023-08-08T04:19:34;3.57;;;2.70;;
5454;SDS011;2750;49.050;9.250;2023-08-08T04:24:35;3.23;;;2.77;;
5454;SDS011;2750;49.050;9.250;2023-08-08T04:29:40;2.50;;;2.27;;
5454;SDS011;2750;49.050;9.250;2023-08-08T04:34:41;4.17;;;2.43;;
5454;SDS011;2750;49.050;9.250;2023-08-08T04:39:43;2.70;;;2.50;;
5454;SDS011;2750;49.050;9.250;2023-08-08T04:44:46;7.37;;;2.87;;
5454;SDS011;2750;49.050;9.250;2023-08-08T04:49:47;3.87;;;2.67;;
5454;SDS011;2750;49.050;9.250;2023-08-08T04:54:49;3.13;;;2.20;;
5454;SDS011;2750;49.050;9.250;2023-08-08T04:59:52;4.10;;;2.30;;
5454;SDS011;2750;49.050;9.250;2023-08-08T05:04:53;4.30;;;2.27;;
5454;SDS011;2750;49.050;9.250;2023-08-08T05:09:55;3.17;;;1.87;;
5454;SDS011;2750;49.050;9.250;2023-08-08T05:14:57;2.03;;;1.83;;
5454;SDS011;2750;49.050;9.250;2023-08-08T05:19:59;2.00;;;1.80;;
5454;SDS011;2750;49.050;9.250;2023-08-08T05:25:01;3.23;;;2.60;;
5454;SDS011;2750;49.050;9.250;2023-08-08T05:30:04;3.60;;;1.90;;
5454;SDS011;2750;49.050;9.250;2023-08-08T05:35:07;3.67;;;2.63;;
5454;SDS011;2750;49.050;9.250;2023-08-08T05:40:09;5.17;;;2.40;;
5454;SDS011;2750;49.050;9.250;2023-08-08T05:45:12;2.77;;;2.13;;
5454;SDS011;2750;49.050;9.250;2023-08-08T05:50:14;2.83;;;2.10;;
5454;SDS011;2750;49.050;9.250;2023-08-08T05:55:16;3.17;;;2.20;;
5454;SDS011;2750;49.050;9.250;2023-08-08T06:00:19;4.00;;;1.73;;
5454;SDS011;2750;49.050;9.250;2023-08-08T06:05:21;1.95;;;1.60;;
5454;SDS011;2750;49.050;9.250;2023-08-08T06:10:23;2.60;;;1.80;;
5454;SDS011;2750;49.050;9.250;2023-08-08T06:15:26;3.10;;;1.60;;
5454;SDS011;2750;49.050;9.250;2023-08-08T06:20:28;3.97;;;2.05;;
5454;SDS011;2750;49.050;9.250;2023-08-08T06:25:30;2.58;;;1.88;;
5454;SDS011;2750;49.050;9.250;2023-08-08T06:30:32;2.97;;;1.80;;
5454;SDS011;2750;49.050;9.250;2023-08-08T06:35:34;1.88;;;1.55;;
5454;SDS011;2750;49.050;9.250;2023-08-08T06:40:36;2.63;;;1.90;;
5454;SDS011;2750;49.050;9.250;2023-08-08T06:45:39;3.20;;;1.83;;
5454;SDS011;2750;49.050;9.250;2023-08-08T06:50:41;4.68;;;2.10;;
5454;SDS011;2750;49.050;9.250;2023-08-08T06:55:43;3.10;;;1.80;;
5454;SDS011;2750;49.050;9.250;2023-08-08T07:00:46;2.47;;;2.00;;
5454;SDS011;2750;49.050;9.250;2023-08-08T07:05:48;3.80;;;1.90;;
5454;SDS011;2750;49.050;9.250;2023-08-08T07:10:51;2.67;;;2.00;;
5454;SDS011;2750;49.050;9.250;2023-08-08T07:15:54;5.37;;;2.00;;
5454;SDS011;2750;49.050;9.250;2023-08-08T07:20:56;3.57;;;2.03;;
5454;SDS011;2750;49.050;9.250;2023-08-08T07:25:57;3.00;;;1.95;;
5454;SDS011;2750;49.050;9.250;2023-08-08T07:31:00;4.18;;;1.70;;
5454;SDS011;2750;49.050;9.250;2023-08-08T07:36:02;4.43;;;2.08;;
5454;SDS011;2750;49.050;9.250;2023-08-08T07:41:04;2.28;;;1.73;;
5454;SDS011;2750;49.050;9.250;2023-08-08T07:46:06;4.97;;;1.92;;
5454;SDS011;2750;49.050;9.250;2023-08-08T07:51:08;2.10;;;1.90;;
5454;SDS011;2750;49.050;9.250;2023-08-08T07:56:10;2.00;;;1.80;;
5454;SDS011;2750;49.050;9.250;2023-08-08T08:01:12;2.28;;;1.90;;
5454;SDS011;2750;49.050;9.250;2023-08-08T08:06:14;2.83;;;1.90;;
5454;SDS011;2750;49.050;9.250;2023-08-08T08:11:16;2.78;;;1.40;;
5454;SDS011;2750;49.050;9.250;2023-08-08T08:16:19;1.92;;;1.58;;
5454;SDS011;2750;49.050;9.250;2023-08-08T08:21:20;2.88;;;1.92;;
5454;SDS011;2750;49.050;9.250;2023-08-08T08:26:22;2.55;;;1.70;;
5454;SDS011;2750;49.050;9.250;2023-08-08T08:31:25;2.42;;;1.75;;
5454;SDS011;2750;49.050;9.250;2023-08-08T08:36:27;2.30;;;1.60;;
5454;SDS011;2750;49.050;9.250;2023-08-08T08:41:29;1.80;;;1.50;;
5454;SDS011;2750;49.050;9.250;2023-08-08T08:46:34;1.57;;;1.40;;
5454;SDS011;2750;49.050;9.250;2023-08-08T08:51:37;2.20;;;2.00;;
5454;SDS011;2750;49.050;9.250;2023-08-08T08:56:40;4.83;;;1.93;;
5454;SDS011;2750;49.050;9.250;2023-08-08T09:01:43;2.97;;;1.90;;
5454;SDS011;2750;49.050;9.250;2023-08-08T09:06:46;3.27;;;1.60;;
5454;SDS011;2750;49.050;9.250;2023-08-08T09:11:48;1.80;;;1.70;;
5454;SDS011;2750;49.050;9.250;2023-08-08T09:16:53;2.67;;;1.80;;
5454;SDS011;2750;49.050;9.250;2023-08-08T09:21:54;3.27;;;1.60;;
5454;SDS011;2750;49.050;9.250;2023-08-08T09:26:56;3.17;;;1.70;;
5454;SDS011;2750;49.050;9.250;2023-08-08T09:31:59;2.57;;;1.73;;
5454;SDS011;2750;49.050;9.250;2023-08-08T09:37:03;1.70;;;1.50;;
5454;SDS011;2750;49.050;9.250;2023-08-08T09:42:06;3.17;;;1.92;;
5454;SDS011;2750;49.050;9.250;2023-08-08T09:47:13;2.63;;;1.67;;
5454;SDS011;2750;49.050;9.250;2023-08-08T09:52:16;2.43;;;1.47;;
5454;SDS011;2750;49.050;9.250;2023-08-08T09:57:18;2.60;;;1.73;;
5454;SDS011;2750;49.050;9.250;2023-08-08T10:02:21;2.40;;;1.60;;
5454;SDS011;2750;49.050;9.250;2023-08-08T10:07:23;2.27;;;1.57;;
5454;SDS011;2750;49.050;9.250;2023-08-08T10:12:25;2.37;;;1.43;;
5454;SDS011;2750;49.050;9.250;2023-08-08T10:17:34;1.70;;;1.37;;
5454;SDS011;2750;49.050;9.250;2023-08-08T10:22:37;3.90;;;2.00;;
5454;SDS011;2750;49.050;9.250;2023-08-08T10:27:40;1.70;;;1.60;;
5454;SDS011;2750;49.050;9.250;2023-08-08T10:32:43;2.22;;;1.55;;
5454;SDS011;2750;49.050;9.250;2023-08-08T10:37:55;4.07;;;1.85;;
5454;SDS011;2750;49.050;9.250;2023-08-08T10:42:58;2.13;;;1.50;;
5454;SDS011;2750;49.050;9.250;2023-08-08T10:48:08;2.20;;;1.70;;
5454;SDS011;2750;49.050;9.250;2023-08-08T10:53:10;2.10;;;1.57;;
5454;SDS011;2750;49.050;9.250;2023-08-08T10:58:13;6.10;;;2.00;;
5454;SDS011;2750;49.050;9.250;2023-08-08T11:03:19;2.27;;;1.70;;
5454;SDS011;2750;49.050;9.250;2023-08-08T11:08:24;4.03;;;1.83;;
5454;SDS011;2750;49.050;9.250;2023-08-08T11:13:26;1.90;;;1.67;;
5454;SDS011;2750;49.050;9.250;2023-08-08T11:18:29;2.83;;;1.80;;
5454;SDS011;2750;49.050;9.250;2023-08-08T11:23:30;1.92;;;1.77;;
5454;SDS011;2750;49.050;9.250;2023-08-08T11:28:37;2.17;;;1.98;;
5454;SDS011;2750;49.050;9.250;2023-08-08T11:33:40;3.35;;;1.90;;
5454;SDS011;2750;49.050;9.250;2023-08-08T11:38:42;4.80;;;1.67;;
5454;SDS011;2750;49.050;9.250;2023-08-08T11:43:44;3.22;;;1.80;;
5454;SDS011;2750;49.050;9.250;2023-08-08T11:48:48;3.10;;;2.05;;
5454;SDS011;2750;49.050;9.250;2023-08-08T11:53:50;3.38;;;2.00;;
5454;SDS011;2750;49.050;9.250;2023-08-08T11:58:54;1.88;;;1.63;;
5454;SDS011;2750;49.050;9.250;2023-08-08T12:03:57;2.05;;;1.40;;
5454;SDS011;2750;49.050;9.250;2023-08-08T12:09:00;3.22;;;1.50;;
5454;SDS011;2750;49.050;9.250;2023-08-08T12:14:03;2.00;;;1.25;;
5454;SDS011;2750;49.050;9.250;2023-08-08T12:19:07;1.60;;;1.50;;
5454;SDS011;2750;49.050;9.250;2023-08-08T12:24:11;1.95;;;1.75;;
5454;SDS011;2750;49.050;9.250;2023-08-08T12:29:12;2.47;;;1.75;;
5454;SDS011;2750;49.050;9.250;2023-08-08T12:34:15;1.88;;;1.63;;
5454;SDS011;2750;49.050;9.250;2023-08-08T12:39:17;1.65;;;1.50;;
5454;SDS011;2750;49.050;9.250;2023-08-08T12:44:18;2.08;;;1.60;;
5454;SDS011;2750;49.050;9.250;2023-08-08T12:49:21;1.63;;;1.50;;
5454;SDS011;2750;49.050;9.250;2023-08-08T12:54:22;2.85;;;1.50;;
5454;SDS011;2750;49.050;9.250;2023-08-08T12:59:24;2.90;;;1.48;;
5454;SDS011;2750;49.050;9.250;2023-08-08T13:04:27;1.33;;;1.20;;
5454;SDS011;2750;49.050;9.250;2023-08-08T13:09:28;2.03;;;1.13;;
5454;SDS011;2750;49.050;9.250;2023-08-08T13:14:30;2.90;;;1.58;;
5454;SDS011;2750;49.050;9.250;2023-08-08T13:19:33;1.27;;;1.15;;
5454;SDS011;2750;49.050;9.250;2023-08-08T13:24:34;1.77;;;1.25;;
5454;SDS011;2750;49.050;9.250;2023-08-08T13:29:36;3.08;;;1.50;;
5454;SDS011;2750;49.050;9.250;2023-08-08T13:34:39;1.40;;;1.00;;
5454;SDS011;2750;49.050;9.250;2023-08-08T13:39:40;2.35;;;1.50;;
5454;SDS011;2750;49.050;9.250;2023-08-08T13:44:42;1.40;;;1.30;;
5454;SDS011;2750;49.050;9.250;2023-08-08T13:49:45;1.50;;;1.33;;
5454;SDS011;2750;49.050;9.250;2023-08-08T13:54:46;2.35;;;1.83;;
5454;SDS011;2750;49.050;9.250;2023-08-08T13:59:48;2.88;;;1.63;;
5454;SDS011;2750;49.050;9.250;2023-08-08T14:04:51;2.47;;;1.80;;
5454;SDS011;2750;49.050;9.250;2023-08-08T14:09:52;1.77;;;1.60;;
5454;SDS011;2750;49.050;9.250;2023-08-08T14:14:54;2.63;;;1.83;;
5454;SDS011;2750;49.050;9.250;2023-08-08T14:19:57;1.65;;;1.55;;
5454;SDS011;2750;49.050;9.250;2023-08-08T14:24:59;2.25;;;1.50;;
5454;SDS011;2750;49.050;9.250;2023-08-08T14:30:01;2.22;;;1.95;;
5454;SDS011;2750;49.050;9.250;2023-08-08T14:35:05;1.67;;;1.45;;
5454;SDS011;2750;49.050;9.250;2023-08-08T14:40:09;1.60;;;1.50;;
5454;SDS011;2750;49.050;9.250;2023-08-08T14:45:11;3.47;;;1.60;;
5454;SDS011;2750;49.050;9.250;2023-08-08T14:50:14;2.55;;;1.95;;
5454;SDS011;2750;49.050;9.250;2023-08-08T14:55:15;2.22;;;1.60;;
5454;SDS011;2750;49.050;9.250;2023-08-08T15:00:17;2.83;;;1.50;;
5454;SDS011;2750;49.050;9.250;2023-08-08T15:05:20;2.08;;;1.60;;
5454;SDS011;2750;49.050;9.250;2023-08-08T15:10:21;3.80;;;1.85;;
5454;SDS011;2750;49.050;9.250;2023-08-08T15:15:23;2.88;;;1.70;;
5454;SDS011;2750;49.050;9.250;2023-08-08T15:20:28;2.10;;;1.42;;
5454;SDS011;2750;49.050;9.250;2023-08-08T15:25:30;1.42;;;1.25;;
5454;SDS011;2750;49.050;9.250;2023-08-08T15:30:32;2.05;;;1.45;;
5454;SDS011;2750;49.050;9.250;2023-08-08T15:35:35;2.63;;;1.42;;
5454;SDS011;2750;49.050;9.250;2023-08-08T15:40:37;1.73;;;1.52;;
5454;SDS011;2750;49.050;9.250;2023-08-08T15:45:38;1.80;;;1.40;;
5454;SDS011;2750;49.050;9.250;2023-08-08T15:50:41;2.20;;;1.23;;
5454;SDS011;2750;49.050;9.250;2023-08-08T15:55:43;3.00;;;1.50;;
5454;SDS011;2750;49.050;9.250;2023-08-08T16:00:45;1.60;;;1.50;;
5454;SDS011;2750;49.050;9.250;2023-08-08T16:05:47;1.67;;;1.58;;
5454;SDS011;2750;49.050;9.250;2023-08-08T16:10:49;3.60;;;2.10;;
5454;SDS011;2750;49.050;9.250;2023-08-08T16:15:50;2.40;;;1.40;;
5454;SDS011;2750;49.050;9.250;2023-08-08T16:20:53;2.35;;;1.45;;
5454;SDS011;2750;49.050;9.250;2023-08-08T16:25:55;2.00;;;1.50;;
5454;SDS011;2750;49.050;9.250;2023-08-08T16:30:56;2.40;;;1.45;;
5454;SDS011;2750;49.050;9.250;2023-08-08T16:35:59;2.17;;;1.52;;
5454;SDS011;2750;49.050;9.250;2023-08-08T16:41:01;2.80;;;1.73;;
5454;SDS011;2750;49.050;9.250;2023-08-08T16:46:03;2.50;;;1.60;;
5454;SDS011;2750;49.050;9.250;2023-08-08T16:51:06;2.67;;;1.53;;
5454;SDS011;2750;49.050;9.250;2023-08-08T16:56:09;2.10;;;1.67;;
5454;SDS011;2750;49.050;9.250;2023-08-08T17:01:11;2.27;;;1.50;;
5454;SDS011;2750;49.050;9.250;2023-08-08T17:06:14;2.10;;;1.80;;
5454;SDS011;2750;49.050;9.250;2023-08-08T17:11:16;2.20;;;1.47;;
5454;SDS011;2750;49.050;9.250;2023-08-08T17:16:18;2.97;;;1.93;;
5454;SDS011;2750;49.050;9.250;2023-08-08T17:21:21;2.33;;;1.80;;
5454;SDS011;2750;49.050;9.250;2023-08-08T17:26:23;2.13;;;1.50;;
5454;SDS011;2750;49.050;9.250;2023-08-08T17:31:24;2.47;;;1.60;;
5454;SDS011;2750;49.050;9.250;2023-08-08T17:36:27;4.13;;;1.60;;
5454;SDS011;2750;49.050;9.250;2023-08-08T17:41:29;4.40;;;1.80;;
5454;SDS011;2750;49.050;9.250;2023-08-08T17:46:32;2.93;;;1.50;;
5454;SDS011;2750;49.050;9.250;2023-08-08T17:51:35;3.60;;;1.70;;
5454;SDS011;2750;49.050;9.250;2023-08-08T17:56:36;7.73;;;3.10;;
5454;SDS011;2750;49.050;9.250;2023-08-08T18:01:38;5.43;;;2.60;;
5454;SDS011;2750;49.050;9.250;2023-08-08T18:06:40;3.47;;;1.80;;
5454;SDS011;2750;49.050;9.250;2023-08-08T18:11:42;1.87;;;1.60;;
5454;SDS011;2750;49.050;9.250;2023-08-08T18:16:45;2.53;;;1.50;;
5454;SDS011;2750;49.050;9.250;2023-08-08T18:21:48;2.10;;;1.67;;
5454;SDS011;2750;49.050;9.250;2023-08-08T18:26:50;3.90;;;1.90;;
5454;SDS011;2750;49.050;9.250;2023-08-08T18:31:52;3.33;;;1.83;;
5454;SDS011;2750;49.050;9.250;2023-08-08T18:36:54;2.83;;;1.70;;
5454;SDS011;2750;49.050;9.250;2023-08-08T18:41:56;3.90;;;1.60;;
5454;SDS011;2750;49.050;9.250;2023-08-08T18:46:57;3.20;;;1.90;;
5454;SDS011;2750;49.050;9.250;2023-08-08T18:52:00;3.97;;;1.50;;
5454;SDS011;2750;49.050;9.250;2023-08-08T18:57:02;2.03;;;1.50;;
5454;SDS011;2750;49.050;9.250;2023-08-08T19:02:04;5.10;;;2.03;;
5454;SDS011;2750;49.050;9.250;2023-08-08T19:07:07;2.20;;;1.77;;
5454;SDS011;2750;49.050;9.250;2023-08-08T19:12:09;2.80;;;1.80;;
5454;SDS011;2750;49.050;9.250;2023-08-08T19:17:11;1.80;;;1.60;;
5454;SDS011;2750;49.050;9.250;2023-08-08T19:22:13;2.40;;;1.43;;
5454;SDS011;2750;49.050;9.250;2023-08-08T19:27:15;2.33;;;1.60;;
5454;SDS011;2750;49.050;9.250;2023-08-08T19:32:17;2.57;;;1.80;;
5454;SDS011;2750;49.050;9.250;2023-08-08T19:37:20;4.37;;;1.93;;
5454;SDS011;2750;49.050;9.250;2023-08-08T19:42:21;5.00;;;2.20;;
5454;SDS011;2750;49.050;9.250;2023-08-08T19:47:23;2.80;;;2.00;;
5454;SDS011;2750;49.050;9.250;2023-08-08T19:52:26;2.30;;;2.10;;
5454;SDS011;2750;49.050;9.250;2023-08-08T19:57:27;5.43;;;2.70;;
5454;SDS011;2750;49.050;9.250;2023-08-08T20:02:29;3.07;;;2.30;;
5454;SDS011;2750;49.050;9.250;2023-08-08T20:07:32;3.53;;;2.50;;
5454;SDS011;2750;49.050;9.250;2023-08-08T20:12:34;4.50;;;2.37;;
5454;SDS011;2750;49.050;9.250;2023-08-08T20:17:35;5.07;;;2.20;;
5454;SDS011;2750;49.050;9.250;2023-08-08T20:22:38;2.77;;;2.03;;
5454;SDS011;2750;49.050;9.250;2023-08-08T20:27:40;3.03;;;2.30;;
5454;SDS011;2750;49.050;9.250;2023-08-08T20:32:41;5.00;;;2.57;;
5454;SDS011;2750;49.050;9.250;2023-08-08T20:37:45;5.93;;;3.77;;
5454;SDS011;2750;49.050;9.250;2023-08-08T20:42:46;3.47;;;3.13;;
5454;SDS011;2750;49.050;9.250;2023-08-08T20:47:48;4.77;;;2.90;;
5454;SDS011;2750;49.050;9.250;2023-08-08T20:52:51;5.17;;;2.87;;
5454;SDS011;2750;49.050;9.250;2023-08-08T20:57:52;2.77;;;2.57;;
5454;SDS011;2750;49.050;9.250;2023-08-08T21:02:54;3.57;;;2.40;;
5454;SDS011;2750;49.050;9.250;2023-08-08T21:07:57;6.60;;;2.87;;
5454;SDS011;2750;49.050;9.250;2023-08-08T21:12:59;3.83;;;2.83;;
5454;SDS011;2750;49.050;9.250;2023-08-08T21:18:00;4.27;;;2.87;;
5454;SDS011;2750;49.050;9.250;2023-08-08T21:23:03;3.10;;;2.40;;
5454;SDS011;2750;49.050;9.250;2023-08-08T21:28:05;2.90;;;2.30;;
5454;SDS011;2750;49.050;9.250;2023-08-08T21:33:07;2.53;;;2.00;;
5454;SDS011;2750;49.050;9.250;2023-08-08T21:38:09;2.60;;;2.40;;
5454;SDS011;2750;49.050;9.250;2023-08-08T21:43:11;6.17;;;2.83;;
5454;SDS011;2750;49.050;9.250;2023-08-08T21:48:13;4.00;;;3.00;;
5454;SDS011;2750;49.050;9.250;2023-08-08T21:53:16;3.20;;;2.43;;
5454;SDS011;2750;49.050;9.250;2023-08-08T21:58:17;3.80;;;2.60;;
5454;SDS011;2750;49.050;9.250;2023-08-08T22:03:19;6.93;;;3.30;;
5454;SDS011;2750;49.050;9.250;2023-08-08T22:08:22;3.23;;;2.93;;
5454;SDS011;2750;49.050;9.250;2023-08-08T22:13:24;5.63;;;4.50;;
5454;SDS011;2750;49.050;9.250;2023-08-08T22:18:27;8.67;;;7.43;;
5454;SDS011;2750;49.050;9.250;2023-08-08T22:23:30;9.20;;;6.90;;
5454;SDS011;2750;49.050;9.250;2023-08-08T22:28:31;10.20;;;6.23;;
5454;SDS011;2750;49.050;9.250;2023-08-08T22:33:33;9.90;;;6.30;;
5454;SDS011;2750;49.050;9.250;2023-08-08T22:38:36;8.30;;;5.47;;
5454;SDS011;2750;49.050;9.250;2023-08-08T22:43:39;4.87;;;3.60;;
5454;SDS011;2750;49.050;9.250;2023-08-08T22:48:41;3.93;;;3.50;;
5454;SDS011;2750;49.050;9.250;2023-08-08T22:53:44;4.37;;;2.57;;
5454;SDS011;2750;49.050;9.250;2023-08-08T22:58:45;4.20;;;2.90;;
5454;SDS011;2750;49.050;9.250;2023-08-08T23:03:47;3.97;;;2.40;;
5454;SDS011;2750;49.050;9.250;2023-08-08T23:08:50;3.30;;;2.20;;
5454;SDS011;2750;49.050;9.250;2023-08-08T23:13:51;5.17;;;3.03;;
5454;SDS011;2750;49.050;9.250;2023-08-08T23:18:53;5.20;;;3.10;;
5454;SDS011;2750;49.050;9.250;2023-08-08T23:23:56;3.30;;;2.33;;
5454;SDS011;2750;49.050;9.250;2023-08-08T23:28:57;3.87;;;2.97;;
5454;SDS011;2750;49.050;9.250;2023-08-08T23:33:59;4.10;;;2.30;;
5454;SDS011;2750;49.050;9.250;2023-08-08T23:39:03;7.30;;;2.40;;
5454;SDS011;2750;49.050;9.250;2023-08-08T23:44:05;2.83;;;2.30;;
5454;SDS011;2750;49.050;9.250;2023-08-08T23:49:06;5.13;;;2.40;;
5454;SDS011;2750;49.050;9.250;2023-08-08T23:54:09;3.63;;;2.00;;
5454;SDS011;2750;49.050;9.250;2023-08-08T23:59:12;3.90;;;2.43;;
